createdAt,value
2019-01-04T00:00:32.467Z,3.60
2019-01-04T00:03:02.248Z,3.60
2019-01-04T00:05:31.521Z,3.60
2019-01-04T00:08:00.811Z,3.60
2019-01-04T00:10:30.157Z,3.60
2019-01-04T00:12:59.442Z,3.60
2019-01-04T00:15:29.058Z,3.70
2019-01-04T00:17:58.423Z,3.70
2019-01-04T00:20:27.705Z,3.60
2019-01-04T00:22:56.990Z,3.70
2019-01-04T00:25:26.561Z,3.70
2019-01-04T00:27:55.845Z,3.80
2019-01-04T00:30:25.130Z,3.80
2019-01-04T00:32:54.413Z,3.80
2019-01-04T00:35:23.983Z,3.80
2019-01-04T00:37:53.350Z,3.80
2019-01-04T00:40:22.635Z,3.80
2019-01-04T00:42:51.923Z,3.70
2019-01-04T00:45:21.496Z,3.70
2019-01-04T00:47:50.770Z,3.80
2019-01-04T00:50:20.395Z,3.80
2019-01-04T00:52:49.670Z,3.80
2019-01-04T00:55:31.051Z,3.80
2019-01-04T00:58:03.407Z,3.80
2019-01-04T01:00:56.000Z,3.60
2019-01-04T01:03:34.225Z,3.60
2019-01-04T01:06:38.067Z,3.60
2019-01-04T01:09:28.651Z,3.60
2019-01-04T01:12:04.271Z,3.70
2019-01-04T01:14:54.550Z,3.70
2019-01-04T01:17:26.960Z,3.60
2019-01-04T01:20:11.062Z,3.50
2019-01-04T01:22:59.915Z,3.60
2019-01-04T01:25:41.839Z,3.50
2019-01-04T01:28:32.215Z,3.50
2019-01-04T01:31:28.247Z,3.50
2019-01-04T01:34:35.558Z,3.50
2019-01-04T01:37:24.222Z,3.50
2019-01-04T01:40:13.185Z,3.50
2019-01-04T01:43:17.915Z,3.40
2019-01-04T01:46:23.910Z,3.30
2019-01-04T01:49:22.179Z,3.40
2019-01-04T01:52:23.089Z,3.40
2019-01-04T01:54:52.365Z,3.40
2019-01-04T01:57:21.659Z,3.40
2019-01-04T01:59:51.191Z,3.40
2019-01-04T02:02:20.483Z,3.40
2019-01-04T02:04:49.759Z,3.40
2019-01-04T02:07:19.298Z,3.30
2019-01-04T02:09:48.583Z,3.30
2019-01-04T02:12:17.877Z,3.40
2019-01-04T02:14:47.161Z,3.30
2019-01-04T02:17:16.701Z,3.40
2019-01-04T02:19:45.989Z,3.30
2019-01-04T02:22:15.516Z,3.30
2019-01-04T02:24:45.122Z,3.30
2019-01-04T02:27:14.726Z,3.30
2019-01-04T02:29:44.476Z,3.30
2019-01-04T02:32:14.289Z,3.30
2019-01-04T02:34:44.017Z,3.30
2019-01-04T02:37:13.575Z,3.20
2019-01-04T02:39:43.198Z,3.20
2019-01-04T02:42:12.803Z,3.20
2019-01-04T02:44:42.405Z,3.20
2019-01-04T02:47:11.789Z,3.20
2019-01-04T02:49:41.187Z,3.10
2019-01-04T02:52:10.973Z,3.20
2019-01-04T02:54:40.539Z,3.20
2019-01-04T02:57:10.284Z,3.20
2019-01-04T02:59:39.838Z,3.20
2019-01-04T03:02:10.393Z,3.20
2019-01-04T03:04:39.679Z,3.30
2019-01-04T03:07:09.294Z,3.40
2019-01-04T03:09:38.591Z,3.30
2019-01-04T03:12:08.223Z,3.30
2019-01-04T03:14:37.513Z,3.30
2019-01-04T03:17:06.793Z,3.40
2019-01-04T03:19:36.062Z,3.30
2019-01-04T03:22:05.362Z,3.30
2019-01-04T03:24:34.638Z,3.40
2019-01-04T03:27:03.930Z,3.40
2019-01-04T03:29:33.205Z,3.40
2019-01-04T03:32:02.800Z,3.40
2019-01-04T03:34:32.082Z,3.40
2019-01-04T03:37:01.372Z,3.40
2019-01-04T03:39:30.641Z,3.40
2019-01-04T03:41:59.934Z,3.40
2019-01-04T03:44:29.210Z,3.40
2019-01-04T03:46:58.527Z,3.40
2019-01-04T03:49:27.804Z,3.50
2019-01-04T03:51:57.415Z,3.40
2019-01-04T03:54:26.695Z,3.30
2019-01-04T03:56:56.315Z,3.30
2019-01-04T03:59:25.595Z,3.40
2019-01-04T04:01:54.890Z,3.30
2019-01-04T04:04:24.171Z,3.30
2019-01-04T04:06:53.727Z,3.30
2019-01-04T04:09:23.000Z,3.30
2019-01-04T04:11:52.636Z,3.20
2019-01-04T04:14:22.246Z,3.20
2019-01-04T04:16:51.540Z,3.20
2019-01-04T04:19:21.151Z,3.10
2019-01-04T04:21:50.443Z,3.00
2019-01-04T04:24:20.062Z,3.00
2019-01-04T04:26:49.343Z,3.00
2019-01-04T04:29:18.626Z,3.00
2019-01-04T04:31:48.169Z,3.00
2019-01-04T04:34:17.458Z,2.90
2019-01-04T04:36:47.078Z,2.90
2019-01-04T04:39:16.367Z,2.80
2019-01-04T04:41:45.983Z,2.90
2019-01-04T04:44:15.279Z,3.00
2019-01-04T04:46:44.560Z,2.90
2019-01-04T04:49:14.112Z,2.90
2019-01-04T04:51:43.699Z,2.80
2019-01-04T04:54:12.991Z,2.80
2019-01-04T04:56:43.347Z,2.70
2019-01-04T04:59:12.626Z,2.80
2019-01-04T05:01:41.911Z,2.80
2019-01-04T05:04:11.195Z,2.80
2019-01-04T05:06:40.477Z,2.80
2019-01-04T05:09:09.757Z,2.90
2019-01-04T05:11:39.026Z,2.90
2019-01-04T05:14:08.318Z,2.80
2019-01-04T05:16:37.599Z,2.90
2019-01-04T05:19:06.899Z,2.90
2019-01-04T05:21:36.182Z,2.90
2019-01-04T05:24:05.739Z,2.90
2019-01-04T05:26:35.019Z,2.90
2019-01-04T05:29:04.300Z,2.90
2019-01-04T05:31:33.592Z,2.80
2019-01-04T05:34:02.862Z,2.90
2019-01-04T05:36:32.163Z,2.90
2019-01-04T05:39:01.442Z,3.00
2019-01-04T05:41:31.208Z,3.00
2019-01-04T05:44:00.762Z,3.00
2019-01-04T05:46:30.045Z,3.10
2019-01-04T05:48:59.668Z,3.10
2019-01-04T05:51:28.964Z,3.00
2019-01-04T05:53:58.257Z,2.90
2019-01-04T05:56:27.890Z,2.90
2019-01-04T05:58:57.170Z,3.00
2019-01-04T06:01:26.465Z,3.00
2019-01-04T06:03:55.740Z,3.00
2019-01-04T06:06:25.034Z,3.00
2019-01-04T06:08:54.331Z,3.00
2019-01-04T06:11:23.887Z,3.00
2019-01-04T06:13:53.496Z,3.10
2019-01-04T06:16:22.796Z,3.10
2019-01-04T06:18:52.406Z,3.00
2019-01-04T06:21:21.699Z,2.90
2019-01-04T06:23:51.319Z,2.90
2019-01-04T06:26:20.922Z,2.90
2019-01-04T06:28:50.528Z,2.90
2019-01-04T06:31:19.830Z,2.80
2019-01-04T06:33:49.115Z,2.90
2019-01-04T06:36:18.399Z,2.90
2019-01-04T06:38:47.683Z,2.80
2019-01-04T06:41:16.961Z,2.80
2019-01-04T06:43:46.535Z,2.90
2019-01-04T06:46:16.148Z,2.90
2019-01-04T06:48:45.446Z,2.90
2019-01-04T06:51:15.802Z,2.80
2019-01-04T06:53:45.094Z,2.80
2019-01-04T06:56:14.388Z,2.70
2019-01-04T06:58:43.981Z,2.80
2019-01-04T07:01:13.271Z,2.90
2019-01-04T07:03:42.562Z,2.80
2019-01-04T07:06:11.846Z,2.70
2019-01-04T07:08:41.398Z,2.80
2019-01-04T07:11:10.919Z,2.90
2019-01-04T07:13:40.220Z,2.80
2019-01-04T07:16:09.535Z,2.90
2019-01-04T07:18:39.113Z,3.00
2019-01-04T07:21:08.710Z,3.00
2019-01-04T07:23:38.006Z,3.00
2019-01-04T07:26:07.299Z,3.10
2019-01-04T07:28:36.586Z,3.20
2019-01-04T07:31:06.113Z,3.10
2019-01-04T07:33:35.727Z,3.10
2019-01-04T07:36:06.077Z,3.10
2019-01-04T07:38:35.358Z,3.00
2019-01-04T07:41:05.722Z,3.00
2019-01-04T07:43:35.019Z,3.00
2019-01-04T07:46:04.306Z,2.90
2019-01-04T07:48:33.591Z,3.00
2019-01-04T07:51:03.189Z,3.00
2019-01-04T07:53:32.478Z,3.00
2019-01-04T07:56:01.800Z,3.10
2019-01-04T07:58:31.413Z,3.10
2019-01-04T08:01:00.689Z,3.20
2019-01-04T08:03:29.982Z,3.10
2019-01-04T08:05:59.282Z,3.20
2019-01-04T08:08:28.632Z,3.30
2019-01-04T08:10:58.202Z,3.30
2019-01-04T08:13:28.563Z,3.30
2019-01-04T08:15:57.849Z,3.20
2019-01-04T08:18:27.443Z,3.20
2019-01-04T08:20:57.730Z,3.20
2019-01-04T08:23:27.011Z,3.20
2019-01-04T08:25:56.579Z,3.10
2019-01-04T08:28:25.875Z,3.20
2019-01-04T08:30:55.165Z,3.20
2019-01-04T08:33:24.474Z,3.20
2019-01-04T08:35:53.754Z,3.30
2019-01-04T08:38:23.045Z,3.30
2019-01-04T08:40:52.313Z,3.40
2019-01-04T08:43:21.611Z,3.40
2019-01-04T08:45:50.897Z,3.40
2019-01-04T08:48:20.487Z,3.40
2019-01-04T08:50:51.121Z,3.40
2019-01-04T08:53:24.827Z,3.40
2019-01-04T08:55:54.123Z,3.40
2019-01-04T08:58:23.453Z,3.30
2019-01-04T09:00:52.763Z,3.30
2019-01-04T09:03:22.325Z,3.30
2019-01-04T09:05:51.606Z,3.20
2019-01-04T09:08:20.971Z,3.30
2019-01-04T09:10:50.328Z,3.30
2019-01-04T09:13:19.615Z,3.30
2019-01-04T09:15:48.893Z,3.30
2019-01-04T09:18:18.445Z,3.20
2019-01-04T09:20:47.734Z,3.20
2019-01-04T09:23:17.013Z,5.10
2019-01-04T09:25:46.358Z,4.70
2019-01-04T09:28:18.098Z,4.10
2019-01-04T09:30:46.689Z,3.90
2019-01-04T09:33:16.299Z,3.60
2019-01-04T09:35:45.602Z,3.60
2019-01-04T09:38:14.873Z,3.50
2019-01-04T09:40:44.157Z,3.50
2019-01-04T09:43:13.438Z,3.50
2019-01-04T09:45:42.725Z,3.50
2019-01-04T09:48:12.315Z,3.50
2019-01-04T09:50:42.682Z,3.50
2019-01-04T09:53:12.239Z,3.40
2019-01-04T09:55:41.525Z,3.40
2019-01-04T09:58:11.156Z,3.30
2019-01-04T10:00:40.434Z,3.40
2019-01-04T10:03:09.711Z,3.30
2019-01-04T10:05:39.013Z,3.30
2019-01-04T10:08:08.557Z,3.40
2019-01-04T10:10:37.850Z,3.50
2019-01-04T10:13:08.201Z,3.60
2019-01-04T10:15:37.785Z,3.40
2019-01-04T10:18:07.086Z,3.50
2019-01-04T10:20:36.378Z,3.60
2019-01-04T10:23:05.670Z,3.60
2019-01-04T10:25:35.200Z,3.60
2019-01-04T10:28:04.512Z,3.70
2019-01-04T10:30:33.775Z,3.70
2019-01-04T10:33:03.402Z,3.70
2019-01-04T10:35:33.014Z,3.80
2019-01-04T10:38:02.622Z,3.80
2019-01-04T10:40:31.906Z,3.90
2019-01-04T10:43:01.203Z,3.90
2019-01-04T10:45:30.473Z,4.00
2019-01-04T10:47:59.762Z,4.10
2019-01-04T10:50:29.046Z,4.10
2019-01-04T10:52:58.329Z,4.10
2019-01-04T10:55:27.931Z,4.20
2019-01-04T10:57:57.222Z,4.20
2019-01-04T11:00:26.510Z,4.10
2019-01-04T11:02:55.792Z,4.10
2019-01-04T11:05:25.342Z,4.20
2019-01-04T11:07:54.634Z,4.20
2019-01-04T11:10:24.260Z,4.30
2019-01-04T11:12:53.546Z,4.10
2019-01-04T11:15:23.163Z,4.10
2019-01-04T11:17:52.767Z,4.30
2019-01-04T11:20:39.781Z,4.20
2019-01-04T11:23:29.051Z,4.20
2019-01-04T11:26:01.736Z,4.20
2019-01-04T11:28:37.083Z,4.10
2019-01-04T11:31:21.354Z,4.10
2019-01-04T11:34:02.403Z,4.00
2019-01-04T11:36:37.398Z,4.10
2019-01-04T11:39:12.400Z,4.20
2019-01-04T11:42:00.102Z,4.20
2019-01-04T11:44:56.838Z,4.20
2019-01-04T11:47:34.368Z,4.10
2019-01-04T11:50:09.266Z,4.20
2019-01-04T11:52:41.597Z,7.10
2019-01-04T11:55:10.896Z,9.80
2019-01-04T11:57:40.779Z,8.10
2019-01-04T12:00:11.225Z,7.50
2019-01-04T12:02:40.804Z,6.10
2019-01-04T12:05:11.467Z,5.50
2019-01-04T12:07:40.750Z,5.10
2019-01-04T12:10:10.038Z,4.90
2019-01-04T12:12:39.332Z,4.50
2019-01-04T12:15:08.772Z,4.40
2019-01-04T12:17:38.071Z,4.40
2019-01-04T12:20:08.057Z,4.30
2019-01-04T12:22:37.663Z,4.30
2019-01-04T12:25:07.273Z,4.30
2019-01-04T12:27:36.550Z,4.40
2019-01-04T12:30:08.495Z,4.20
2019-01-04T12:32:37.779Z,4.20
2019-01-04T12:35:07.075Z,4.20
2019-01-04T12:37:36.367Z,4.20
2019-01-04T12:40:06.687Z,4.10
2019-01-04T12:42:35.971Z,4.10
2019-01-04T12:45:06.907Z,4.10
2019-01-04T12:47:36.198Z,4.10
2019-01-04T12:50:08.263Z,4.10
2019-01-04T12:52:37.871Z,4.10
2019-01-04T12:55:07.227Z,5.50
2019-01-04T12:57:36.778Z,6.30
2019-01-04T13:00:09.554Z,5.50
2019-01-04T13:02:39.171Z,4.80
2019-01-04T13:05:09.583Z,4.50
2019-01-04T13:07:39.951Z,4.50
2019-01-04T13:10:09.221Z,4.40
2019-01-04T13:12:38.519Z,4.30
2019-01-04T13:15:08.132Z,4.30
2019-01-04T13:17:37.417Z,4.40
2019-01-04T13:20:06.888Z,4.30
2019-01-04T13:22:36.166Z,4.30
2019-01-04T13:25:06.387Z,4.30
2019-01-04T13:27:35.674Z,4.30
2019-01-04T13:30:06.303Z,4.70
2019-01-04T13:32:35.622Z,4.80
2019-01-04T13:35:05.479Z,4.70
2019-01-04T13:37:34.767Z,4.50
2019-01-04T13:40:05.747Z,4.40
2019-01-04T13:42:35.363Z,4.30
2019-01-04T13:45:06.286Z,4.20
2019-01-04T13:47:35.903Z,4.10
2019-01-04T13:50:07.145Z,4.10
2019-01-04T13:52:36.471Z,4.20
2019-01-04T13:55:05.926Z,4.10
2019-01-04T13:57:35.567Z,4.10
2019-01-04T14:00:07.847Z,4.10
2019-01-04T14:02:37.303Z,4.10
2019-01-04T14:05:06.585Z,4.10
2019-01-04T14:07:35.863Z,4.10
2019-01-04T14:10:08.399Z,4.00
2019-01-04T14:12:37.918Z,4.00
2019-01-04T14:15:08.353Z,4.00
2019-01-04T14:17:37.872Z,4.10
2019-01-04T14:20:08.004Z,4.00
2019-01-04T14:22:38.321Z,4.00
2019-01-04T14:25:08.150Z,4.00
2019-01-04T14:27:38.404Z,4.00
2019-01-04T14:30:10.680Z,4.00
2019-01-04T14:32:39.965Z,4.00
2019-01-04T14:35:09.814Z,4.00
2019-01-04T14:37:39.431Z,4.00
2019-01-04T14:40:10.652Z,4.00
2019-01-04T14:42:39.936Z,4.00
2019-01-04T14:45:09.362Z,4.00
2019-01-04T14:47:38.987Z,3.90
2019-01-04T14:50:10.615Z,3.90
2019-01-04T14:52:41.066Z,3.90
2019-01-04T14:55:10.678Z,4.00
2019-01-04T14:57:40.297Z,4.00
2019-01-04T15:00:11.602Z,4.00
2019-01-04T15:02:40.878Z,4.00
2019-01-04T15:05:10.165Z,4.00
2019-01-04T15:07:39.734Z,3.90
2019-01-04T15:10:09.668Z,4.00
2019-01-04T15:12:38.962Z,4.00
2019-01-04T15:15:08.567Z,3.90
2019-01-04T15:17:38.229Z,4.00
2019-01-04T15:20:09.754Z,3.90
2019-01-04T15:22:39.166Z,3.90
2019-01-04T15:25:08.573Z,4.00
2019-01-04T15:27:37.862Z,4.00
2019-01-04T15:30:09.913Z,4.10
2019-01-04T15:32:39.503Z,4.00
2019-01-04T15:35:08.909Z,3.90
2019-01-04T15:37:38.513Z,3.90
2019-01-04T15:40:08.560Z,3.90
2019-01-04T15:42:38.153Z,3.90
2019-01-04T15:45:08.763Z,3.90
2019-01-04T15:47:38.057Z,3.90
2019-01-04T15:50:08.882Z,3.90
2019-01-04T15:52:38.167Z,3.90
2019-01-04T15:55:07.733Z,3.90
2019-01-04T15:57:37.015Z,4.00
2019-01-04T16:00:09.374Z,4.10
2019-01-04T16:02:38.833Z,3.90
2019-01-04T16:05:10.083Z,3.90
2019-01-04T16:07:39.366Z,3.80
2019-01-04T16:10:09.680Z,3.90
2019-01-04T16:12:39.283Z,3.90
2019-01-04T16:15:09.907Z,3.80
2019-01-04T16:17:39.427Z,3.80
2019-01-04T16:20:11.537Z,3.70
2019-01-04T16:22:40.823Z,3.70
2019-01-04T16:25:10.098Z,3.70
2019-01-04T16:27:39.691Z,3.60
2019-01-04T16:30:11.051Z,3.60
2019-01-04T16:32:40.335Z,3.60
2019-01-04T16:35:09.947Z,3.60
2019-01-04T16:37:39.563Z,3.60
2019-01-04T16:40:09.017Z,3.60
2019-01-04T16:42:38.294Z,3.60
2019-01-04T16:45:08.183Z,3.60
2019-01-04T16:47:37.891Z,3.50
2019-01-04T16:50:07.717Z,3.50
2019-01-04T16:52:37.007Z,3.50
2019-01-04T16:55:08.130Z,3.50
2019-01-04T16:57:37.575Z,3.60
2019-01-04T17:00:09.743Z,3.60
2019-01-04T17:02:39.080Z,3.60
2019-01-04T17:05:08.362Z,3.40
2019-01-04T17:07:38.061Z,3.50
2019-01-04T17:10:07.426Z,3.50
2019-01-04T17:12:36.713Z,3.50
2019-01-04T17:15:07.197Z,3.50
2019-01-04T17:17:37.311Z,3.60
2019-01-04T17:20:07.218Z,3.40
2019-01-04T17:22:36.520Z,3.40
2019-01-04T17:25:07.546Z,3.40
2019-01-04T17:27:36.829Z,3.50
2019-01-04T17:30:08.723Z,3.40
2019-01-04T17:32:38.310Z,3.40
2019-01-04T17:35:07.602Z,3.40
2019-01-04T17:37:36.896Z,3.50
2019-01-04T17:40:08.430Z,3.50
2019-01-04T17:42:37.711Z,3.40
2019-01-04T17:45:08.162Z,3.30
2019-01-04T17:47:37.447Z,3.40
2019-01-04T17:50:08.132Z,3.30
2019-01-04T17:52:37.742Z,3.30
2019-01-04T17:55:07.345Z,3.30
2019-01-04T17:57:36.621Z,3.30
2019-01-04T18:00:08.890Z,3.30
2019-01-04T18:02:39.452Z,3.30
2019-01-04T18:05:08.719Z,3.30
2019-01-04T18:07:38.355Z,3.30
2019-01-04T18:10:08.895Z,3.30
2019-01-04T18:12:38.187Z,3.30
2019-01-04T18:15:08.198Z,3.30
2019-01-04T18:17:37.817Z,3.30
2019-01-04T18:20:10.967Z,3.30
2019-01-04T18:22:39.819Z,3.30
2019-01-04T18:25:09.125Z,3.30
2019-01-04T18:27:38.407Z,3.30
2019-01-04T18:30:09.438Z,3.20
2019-01-04T18:32:39.035Z,3.10
2019-01-04T18:35:08.316Z,3.30
2019-01-04T18:37:37.686Z,3.30
2019-01-04T18:40:09.014Z,3.20
2019-01-04T18:42:38.707Z,3.20
2019-01-04T18:45:08.514Z,3.20
2019-01-04T18:47:39.499Z,3.20
2019-01-04T18:50:12.078Z,3.30
2019-01-04T18:52:41.419Z,3.30
2019-01-04T18:55:10.775Z,3.20
2019-01-04T18:57:40.104Z,3.30
2019-01-04T19:00:11.287Z,3.40
2019-01-04T19:02:40.886Z,3.40
2019-01-04T19:05:10.498Z,3.40
2019-01-04T19:07:39.778Z,3.40
2019-01-04T19:10:09.722Z,3.50
2019-01-04T19:12:38.993Z,3.40
2019-01-04T19:15:10.131Z,3.30
2019-01-04T19:17:39.418Z,3.30
2019-01-04T19:20:08.826Z,3.40
2019-01-04T19:22:38.182Z,3.40
2019-01-04T19:25:07.601Z,3.40
2019-01-04T19:27:36.898Z,3.40
2019-01-04T19:30:07.954Z,3.40
2019-01-04T19:32:37.722Z,3.40
2019-01-04T19:35:07.073Z,3.30
2019-01-04T19:37:36.756Z,3.30
2019-01-04T19:40:06.846Z,3.30
2019-01-04T19:42:36.559Z,3.20
2019-01-04T19:45:07.303Z,3.30
2019-01-04T19:47:36.905Z,3.30
2019-01-04T19:50:17.921Z,3.30
2019-01-04T19:52:47.691Z,3.30
2019-01-04T19:55:16.982Z,3.30
2019-01-04T19:57:47.166Z,3.20
2019-01-04T20:00:16.865Z,3.30
2019-01-04T20:02:46.251Z,3.30
2019-01-04T20:05:16.019Z,3.30
2019-01-04T20:08:05.456Z,3.30
2019-01-04T20:11:13.639Z,3.30
2019-01-04T20:14:10.163Z,3.30
2019-01-04T20:16:59.598Z,3.30
2019-01-04T20:19:42.663Z,3.30
2019-01-04T20:22:13.634Z,3.30
2019-01-04T20:24:47.819Z,3.30
2019-01-04T20:27:21.503Z,3.30
2019-01-04T20:29:52.426Z,3.30
2019-01-04T20:32:26.598Z,3.30
2019-01-04T20:35:16.206Z,3.30
2019-01-04T20:37:53.074Z,3.20
2019-01-04T20:40:24.268Z,3.20
2019-01-04T20:42:55.568Z,3.30
2019-01-04T20:45:27.073Z,3.30
2019-01-04T20:47:58.240Z,3.30
2019-01-04T20:50:32.063Z,3.30
2019-01-04T20:53:06.023Z,3.40
2019-01-04T20:55:37.006Z,3.30
2019-01-04T20:58:23.241Z,3.30
2019-01-04T21:01:10.454Z,3.30
2019-01-04T21:03:47.178Z,3.30
2019-01-04T21:06:30.605Z,3.10
2019-01-04T21:09:01.781Z,3.20
2019-01-04T21:11:36.467Z,3.20
2019-01-04T21:14:23.907Z,3.20
2019-01-04T21:16:55.147Z,3.20
2019-01-04T21:19:41.445Z,3.20
2019-01-04T21:22:15.050Z,3.30
2019-01-04T21:24:52.231Z,3.30
2019-01-04T21:27:41.599Z,3.30
2019-01-04T21:30:12.866Z,3.30
2019-01-04T21:32:47.894Z,3.30
2019-01-04T21:35:34.387Z,3.20
2019-01-04T21:38:21.593Z,3.20
2019-01-04T21:40:58.586Z,3.20
2019-01-04T21:43:32.599Z,3.20
2019-01-04T21:46:06.073Z,3.20
2019-01-04T21:48:43.497Z,3.20
2019-01-04T21:51:17.607Z,3.20
2019-01-04T21:54:03.310Z,3.30
2019-01-04T21:56:37.345Z,3.20
2019-01-04T21:59:10.956Z,3.30
2019-01-04T22:02:00.200Z,3.30
2019-01-04T22:04:47.218Z,3.40
2019-01-04T22:07:18.189Z,3.40
2019-01-04T22:09:57.934Z,3.40
2019-01-04T22:12:43.646Z,3.30
2019-01-04T22:15:30.975Z,3.30
2019-01-04T22:18:18.720Z,3.20
2019-01-04T22:20:58.734Z,3.30
2019-01-04T22:23:41.638Z,3.30
2019-01-04T22:26:29.762Z,3.20
2019-01-04T22:29:06.914Z,3.30
2019-01-04T22:31:54.268Z,3.30
2019-01-04T22:34:25.229Z,3.30
2019-01-04T22:37:08.427Z,3.30
2019-01-04T22:39:42.322Z,3.30
2019-01-04T22:42:29.847Z,3.30
2019-01-04T22:45:17.096Z,3.30
2019-01-04T22:48:03.579Z,3.30
2019-01-04T22:50:34.514Z,3.30
2019-01-04T22:53:22.034Z,3.30
2019-01-04T22:56:09.267Z,3.30
2019-01-04T22:58:40.508Z,3.30
2019-01-04T23:01:14.879Z,3.30
2019-01-04T23:04:00.921Z,3.30
2019-01-04T23:06:32.162Z,3.40
2019-01-04T23:09:19.533Z,3.40
2019-01-04T23:11:59.541Z,3.40
2019-01-04T23:14:49.119Z,3.50
2019-01-04T23:17:20.047Z,3.50
2019-01-04T23:19:57.229Z,3.50
2019-01-04T23:22:45.817Z,3.50
2019-01-04T23:25:19.914Z,3.50
2019-01-04T23:30:41.316Z,3.50
2019-01-04T23:33:21.124Z,3.60
2019-01-04T23:36:04.193Z,3.60
2019-01-04T23:38:35.273Z,3.60
2019-01-04T23:41:06.282Z,3.70
2019-01-04T23:43:53.400Z,3.60
2019-01-04T23:46:24.502Z,3.60
2019-01-04T23:49:11.512Z,3.60
2019-01-04T23:51:59.102Z,3.70
2019-01-04T23:54:30.351Z,3.80
2019-01-04T23:57:04.339Z,3.80
2019-01-04T23:59:44.199Z,3.80
